createdAt,value
2018-11-29T00:00:12.418Z,1021.48
2018-11-29T00:00:52.986Z,1021.55
2018-11-29T00:01:33.546Z,1021.49
2018-11-29T00:02:14.116Z,1021.56
2018-11-29T00:02:54.673Z,1021.51
2018-11-29T00:03:35.242Z,1021.5
2018-11-29T00:04:15.796Z,1021.51
2018-11-29T00:04:56.356Z,1021.47
2018-11-29T00:05:36.986Z,1021.5
2018-11-29T00:06:17.550Z,1021.5
2018-11-29T00:06:58.099Z,1021.44
2018-11-29T00:07:38.658Z,1021.44
2018-11-29T00:08:19.220Z,1021.43
2018-11-29T00:08:59.776Z,1021.42
2018-11-29T00:09:40.341Z,1021.51
2018-11-29T00:10:20.897Z,1021.5
2018-11-29T00:11:01.451Z,1021.49
2018-11-29T00:11:42.002Z,1021.47
2018-11-29T00:12:22.564Z,1021.47
2018-11-29T00:13:03.120Z,1021.49
2018-11-29T00:13:43.679Z,1021.48
2018-11-29T00:14:24.242Z,1021.47
2018-11-29T00:15:04.804Z,1021.52
2018-11-29T00:15:45.364Z,1021.55
2018-11-29T00:16:25.949Z,1021.53
2018-11-29T00:17:06.509Z,1021.48
2018-11-29T00:17:47.077Z,1021.45
2018-11-29T00:18:27.649Z,1021.39
2018-11-29T00:19:08.202Z,1021.38
2018-11-29T00:19:48.772Z,1021.38
2018-11-29T00:20:29.323Z,1021.35
2018-11-29T00:21:09.883Z,1021.31
2018-11-29T00:21:50.439Z,1021.35
2018-11-29T00:22:30.999Z,1021.32
2018-11-29T00:23:11.559Z,1021.36
2018-11-29T00:23:52.127Z,1021.41
2018-11-29T00:24:32.712Z,1021.38
2018-11-29T00:25:13.275Z,1021.32
2018-11-29T00:25:53.842Z,1021.4
2018-11-29T00:26:34.402Z,1021.34
2018-11-29T00:27:14.963Z,1021.32
2018-11-29T00:27:55.510Z,1021.34
2018-11-29T00:28:36.070Z,1021.33
2018-11-29T00:29:16.629Z,1021.37
2018-11-29T00:29:57.193Z,1021.35
2018-11-29T00:30:37.746Z,1021.39
2018-11-29T00:31:18.330Z,1021.39
2018-11-29T00:31:58.900Z,1021.42
2018-11-29T00:32:39.457Z,1021.42
2018-11-29T00:33:20.026Z,1021.4
2018-11-29T00:34:00.581Z,1021.41
2018-11-29T00:34:41.147Z,1021.39
2018-11-29T00:35:21.709Z,1021.38
2018-11-29T00:36:02.258Z,1021.34
2018-11-29T00:36:42.818Z,1021.35
2018-11-29T00:37:23.385Z,1021.31
2018-11-29T00:38:03.958Z,1021.26
2018-11-29T00:38:44.515Z,1021.28
2018-11-29T00:39:25.067Z,1021.26
2018-11-29T00:40:05.625Z,1021.29
2018-11-29T00:40:46.177Z,1021.3
2018-11-29T00:41:26.740Z,1021.31
2018-11-29T00:42:07.294Z,1021.34
2018-11-29T00:42:47.853Z,1021.35
2018-11-29T00:43:28.434Z,1021.31
2018-11-29T00:44:08.994Z,1021.36
2018-11-29T00:44:49.558Z,1021.29
2018-11-29T00:45:30.110Z,1021.3
2018-11-29T00:46:10.667Z,1021.27
2018-11-29T00:46:51.220Z,1021.21
2018-11-29T00:47:31.778Z,1021.26
2018-11-29T00:48:12.344Z,1021.26
2018-11-29T00:48:52.902Z,1021.25
2018-11-29T00:49:33.467Z,1021.23
2018-11-29T00:50:14.061Z,1021.27
2018-11-29T00:50:54.607Z,1021.2
2018-11-29T00:51:35.172Z,1021.25
2018-11-29T00:52:15.732Z,1021.2
2018-11-29T00:52:56.294Z,1021.17
2018-11-29T00:53:36.853Z,1021.25
2018-11-29T00:54:17.417Z,1021.24
2018-11-29T00:54:57.973Z,1021.22
2018-11-29T00:55:38.535Z,1021.23
2018-11-29T00:56:19.093Z,1021.25
2018-11-29T00:56:59.651Z,1021.29
2018-11-29T00:57:40.210Z,1021.27
2018-11-29T00:58:20.768Z,1021.24
2018-11-29T00:59:01.327Z,1021.35
2018-11-29T00:59:41.888Z,1021.36
2018-11-29T01:00:22.446Z,1021.38
2018-11-29T01:01:03.000Z,1021.29
2018-11-29T01:01:43.569Z,1021.31
2018-11-29T01:02:24.130Z,1021.28
2018-11-29T01:03:04.682Z,1021.26
2018-11-29T01:03:45.241Z,1021.24
2018-11-29T01:04:25.797Z,1021.29
2018-11-29T01:05:06.361Z,1021.24
2018-11-29T01:05:46.941Z,1021.32
2018-11-29T01:06:27.499Z,1021.26
2018-11-29T01:07:08.056Z,1021.29
2018-11-29T01:07:48.610Z,1021.24
2018-11-29T01:08:29.171Z,1021.24
2018-11-29T01:09:09.733Z,1021.24
2018-11-29T01:09:50.292Z,1021.23
2018-11-29T01:10:30.849Z,1021.28
2018-11-29T01:11:11.409Z,1021.27
2018-11-29T01:11:52.043Z,1021.27
2018-11-29T01:12:32.603Z,1021.27
2018-11-29T01:13:13.166Z,1021.29
2018-11-29T01:13:53.720Z,1021.3
2018-11-29T01:14:34.277Z,1021.28
2018-11-29T01:15:14.837Z,1021.22
2018-11-29T01:15:55.403Z,1021.26
2018-11-29T01:16:35.958Z,1021.24
2018-11-29T01:17:16.531Z,1021.26
2018-11-29T01:17:57.095Z,1021.26
2018-11-29T01:18:37.684Z,1021.27
2018-11-29T01:19:18.239Z,1021.24
2018-11-29T01:19:58.797Z,1021.26
2018-11-29T01:20:39.382Z,1021.22
2018-11-29T01:21:19.943Z,1021.22
2018-11-29T01:22:00.550Z,1021.17
2018-11-29T01:22:41.101Z,1021.17
2018-11-29T01:23:21.668Z,1021.25
2018-11-29T01:24:02.217Z,1021.17
2018-11-29T01:24:42.776Z,1021.17
2018-11-29T01:25:23.334Z,1021.24
2018-11-29T01:26:03.892Z,1021.23
2018-11-29T01:26:44.449Z,1021.17
2018-11-29T01:27:25.011Z,1021.23
2018-11-29T01:28:06.163Z,1021.18
2018-11-29T01:28:46.723Z,1021.2
2018-11-29T01:29:27.280Z,1021.18
2018-11-29T01:30:07.831Z,1021.24
2018-11-29T01:30:48.388Z,1021.16
2018-11-29T01:31:28.954Z,1021.12
2018-11-29T01:32:09.520Z,1021.12
2018-11-29T01:32:50.074Z,1021.14
2018-11-29T01:33:30.634Z,1021.15
2018-11-29T01:34:11.192Z,1021.17
2018-11-29T01:34:51.753Z,1021.12
2018-11-29T01:35:32.316Z,1021.11
2018-11-29T01:36:12.871Z,1021.13
2018-11-29T01:36:53.429Z,1021.1
2018-11-29T01:37:33.987Z,1021.09
2018-11-29T01:38:14.553Z,1021.07
2018-11-29T01:38:55.111Z,1021
2018-11-29T01:39:35.663Z,1020.98
2018-11-29T01:40:16.227Z,1020.98
2018-11-29T01:40:56.787Z,1020.99
2018-11-29T01:41:37.343Z,1020.93
2018-11-29T01:42:17.904Z,1020.94
2018-11-29T01:42:58.462Z,1020.9
2018-11-29T01:43:39.027Z,1020.89
2018-11-29T01:44:19.583Z,1020.87
2018-11-29T01:45:00.138Z,1020.86
2018-11-29T01:45:40.697Z,1020.8
2018-11-29T01:46:21.255Z,1020.82
2018-11-29T01:47:01.818Z,1020.78
2018-11-29T01:47:42.382Z,1020.8
2018-11-29T01:48:22.938Z,1020.82
2018-11-29T01:49:03.498Z,1020.83
2018-11-29T01:49:44.053Z,1020.81
2018-11-29T01:50:24.606Z,1020.82
2018-11-29T01:51:05.165Z,1020.83
2018-11-29T01:51:45.761Z,1020.85
2018-11-29T01:52:26.311Z,1020.86
2018-11-29T01:53:06.872Z,1020.85
2018-11-29T01:53:47.423Z,1020.92
2018-11-29T01:54:27.992Z,1020.81
2018-11-29T01:55:08.570Z,1020.83
2018-11-29T01:55:49.125Z,1020.8
2018-11-29T01:56:29.679Z,1020.82
2018-11-29T01:57:10.236Z,1020.8
2018-11-29T01:57:50.786Z,1020.81
2018-11-29T01:58:31.345Z,1020.75
2018-11-29T01:59:11.905Z,1020.72
2018-11-29T01:59:52.467Z,1020.68
2018-11-29T02:00:33.034Z,1020.71
2018-11-29T02:01:13.609Z,1020.7
2018-11-29T02:01:54.174Z,1020.63
2018-11-29T02:02:34.732Z,1020.68
2018-11-29T02:03:15.287Z,1020.68
2018-11-29T02:03:55.847Z,1020.69
2018-11-29T02:04:36.404Z,1020.7
2018-11-29T02:05:16.954Z,1020.72
2018-11-29T02:05:57.526Z,1020.7
2018-11-29T02:06:38.070Z,1020.69
2018-11-29T02:07:18.645Z,1020.65
2018-11-29T02:07:59.199Z,1020.63
2018-11-29T02:08:39.772Z,1020.59
2018-11-29T02:09:20.322Z,1020.61
2018-11-29T02:10:00.880Z,1020.61
2018-11-29T02:10:41.460Z,1020.57
2018-11-29T02:11:22.015Z,1020.52
2018-11-29T02:12:02.554Z,1020.49
2018-11-29T02:12:43.104Z,1020.47
2018-11-29T02:13:23.715Z,1020.43
2018-11-29T02:14:04.299Z,1020.45
2018-11-29T02:14:45.088Z,1020.47
2018-11-29T02:15:25.636Z,1020.43
2018-11-29T02:16:06.194Z,1020.43
2018-11-29T02:16:46.749Z,1020.37
2018-11-29T02:17:27.337Z,1020.44
2018-11-29T02:18:07.915Z,1020.39
2018-11-29T02:18:48.483Z,1020.38
2018-11-29T02:19:29.047Z,1020.35
2018-11-29T02:20:09.596Z,1020.42
2018-11-29T02:20:50.161Z,1020.4
2018-11-29T02:21:30.698Z,1020.36
2018-11-29T02:22:11.249Z,1020.44
2018-11-29T02:22:51.804Z,1020.38
2018-11-29T02:23:32.400Z,1020.28
2018-11-29T02:24:12.951Z,1020.34
2018-11-29T02:24:53.517Z,1020.32
2018-11-29T02:25:34.073Z,1020.25
2018-11-29T02:26:14.618Z,1020.33
2018-11-29T02:26:55.177Z,1020.27
2018-11-29T02:27:35.745Z,1020.24
2018-11-29T02:28:16.319Z,1020.29
2018-11-29T02:28:56.881Z,1020.31
2018-11-29T02:29:37.439Z,1020.27
2018-11-29T02:30:18.054Z,1020.26
2018-11-29T02:30:58.585Z,1020.22
2018-11-29T02:31:39.142Z,1020.2
2018-11-29T02:32:19.783Z,1020.17
2018-11-29T02:33:00.338Z,1020.18
2018-11-29T02:33:40.896Z,1020.19
2018-11-29T02:34:21.445Z,1020.16
2018-11-29T02:35:02.016Z,1020.14
2018-11-29T02:35:42.615Z,1020.16
2018-11-29T02:36:23.172Z,1020.18
2018-11-29T02:37:03.729Z,1020.2
2018-11-29T02:37:44.292Z,1020.21
2018-11-29T02:38:24.858Z,1020.18
2018-11-29T02:39:05.408Z,1020.16
2018-11-29T02:39:45.964Z,1020.23
2018-11-29T02:40:26.531Z,1020.27
2018-11-29T02:41:07.119Z,1020.3
2018-11-29T02:41:47.697Z,1020.27
2018-11-29T02:42:28.256Z,1020.3
2018-11-29T02:43:08.827Z,1020.24
2018-11-29T02:43:49.373Z,1020.31
2018-11-29T02:44:29.937Z,1020.21
2018-11-29T02:45:10.498Z,1020.21
2018-11-29T02:45:51.052Z,1020.24
2018-11-29T02:46:31.604Z,1020.23
2018-11-29T02:47:12.152Z,1020.22
2018-11-29T02:47:52.717Z,1020.24
2018-11-29T02:48:33.266Z,1020.25
2018-11-29T02:49:13.822Z,1020.25
2018-11-29T02:49:54.371Z,1020.28
2018-11-29T02:50:34.945Z,1020.31
2018-11-29T02:51:15.497Z,1020.35
2018-11-29T02:51:56.060Z,1020.39
2018-11-29T02:52:36.623Z,1020.38
2018-11-29T02:53:17.184Z,1020.34
2018-11-29T02:53:57.748Z,1020.32
2018-11-29T02:54:38.298Z,1020.3
2018-11-29T02:55:18.878Z,1020.38
2018-11-29T02:55:59.455Z,1020.35
2018-11-29T02:56:39.991Z,1020.43
2018-11-29T02:57:20.550Z,1020.38
2018-11-29T02:58:01.122Z,1020.45
2018-11-29T02:58:41.682Z,1020.48
2018-11-29T02:59:22.274Z,1020.39
2018-11-29T03:00:02.835Z,1020.45
2018-11-29T03:00:43.397Z,1020.42
2018-11-29T03:01:23.951Z,1020.39
2018-11-29T03:02:04.514Z,1020.39
2018-11-29T03:02:45.078Z,1020.37
2018-11-29T03:03:25.627Z,1020.27
2018-11-29T03:04:06.190Z,1020.26
2018-11-29T03:04:46.745Z,1020.25
2018-11-29T03:05:27.302Z,1020.23
2018-11-29T03:06:07.897Z,1020.23
2018-11-29T03:06:48.466Z,1020.22
2018-11-29T03:07:29.027Z,1020.22
2018-11-29T03:08:09.585Z,1020.2
2018-11-29T03:08:50.122Z,1020.17
2018-11-29T03:09:30.709Z,1020.15
2018-11-29T03:10:11.239Z,1020.12
2018-11-29T03:10:51.788Z,1020.15
2018-11-29T03:11:32.344Z,1020.12
2018-11-29T03:12:12.896Z,1020.07
2018-11-29T03:12:53.456Z,1020.09
2018-11-29T03:13:34.015Z,1020.09
2018-11-29T03:14:14.564Z,1020.11
2018-11-29T03:14:55.114Z,1020.08
2018-11-29T03:15:35.669Z,1020.03
2018-11-29T03:16:16.244Z,1020.03
2018-11-29T03:16:56.802Z,1020.02
2018-11-29T03:17:37.393Z,1020.02
2018-11-29T03:18:17.944Z,1020.02
2018-11-29T03:18:58.524Z,1020.08
2018-11-29T03:19:39.092Z,1020.14
2018-11-29T03:20:19.645Z,1020.13
2018-11-29T03:21:00.203Z,1020.15
2018-11-29T03:21:40.756Z,1020.13
2018-11-29T03:22:21.337Z,1020.18
2018-11-29T03:23:01.888Z,1020.16
2018-11-29T03:23:42.453Z,1020.15
2018-11-29T03:24:22.990Z,1020.14
2018-11-29T03:25:03.557Z,1020.16
2018-11-29T03:25:44.096Z,1020.12
2018-11-29T03:26:24.655Z,1020.09
2018-11-29T03:27:05.223Z,1020.14
2018-11-29T03:27:45.755Z,1020.1
2018-11-29T03:28:26.331Z,1020.12
2018-11-29T03:29:06.969Z,1020.07
2018-11-29T03:29:47.529Z,1020.12
2018-11-29T03:30:28.079Z,1020.14
2018-11-29T03:31:08.630Z,1020.15
2018-11-29T03:31:49.188Z,1020.13
2018-11-29T03:32:29.773Z,1020.16
2018-11-29T03:33:10.322Z,1020.15
2018-11-29T03:33:50.878Z,1020.12
2018-11-29T03:34:31.484Z,1020.09
2018-11-29T03:35:12.064Z,1020.07
2018-11-29T03:35:52.646Z,1020.12
2018-11-29T03:36:33.199Z,1020.21
2018-11-29T03:37:13.762Z,1020.22
2018-11-29T03:37:54.337Z,1020.23
2018-11-29T03:38:34.903Z,1020.22
2018-11-29T03:39:15.456Z,1020.25
2018-11-29T03:39:56.001Z,1020.17
2018-11-29T03:40:36.578Z,1020.13
2018-11-29T03:41:17.130Z,1020.12
2018-11-29T03:41:57.678Z,1020.2
2018-11-29T03:42:38.270Z,1020.16
2018-11-29T03:43:18.819Z,1020.13
2018-11-29T03:43:59.379Z,1020.09
2018-11-29T03:44:39.942Z,1020.16
2018-11-29T03:45:20.507Z,1020.17
2018-11-29T03:46:01.063Z,1020.14
2018-11-29T03:46:41.634Z,1020.13
2018-11-29T03:47:22.186Z,1020.13
2018-11-29T03:48:02.754Z,1020.11
2018-11-29T03:48:43.323Z,1020.12
2018-11-29T03:49:23.884Z,1020.11
2018-11-29T03:50:04.454Z,1020.09
2018-11-29T03:50:45.005Z,1020.13
2018-11-29T03:51:25.585Z,1020.09
2018-11-29T03:52:06.137Z,1020.1
2018-11-29T03:52:46.682Z,1020.04
2018-11-29T03:53:27.246Z,1020.15
2018-11-29T03:54:07.833Z,1020.1
2018-11-29T03:54:48.409Z,1020.14
2018-11-29T03:55:28.984Z,1020.06
2018-11-29T03:56:09.529Z,1020.08
2018-11-29T03:56:50.099Z,1020.07
2018-11-29T03:57:30.651Z,1020.05
2018-11-29T03:58:11.211Z,1020.04
2018-11-29T03:58:51.757Z,1020.08
2018-11-29T03:59:32.317Z,1020.03
2018-11-29T04:00:12.972Z,1020.02
2018-11-29T04:00:53.604Z,1020.04
2018-11-29T04:01:34.164Z,1020.06
2018-11-29T04:02:14.727Z,1020.09
2018-11-29T04:02:55.278Z,1020.1
2018-11-29T04:03:35.850Z,1020.11
2018-11-29T04:04:16.405Z,1020.08
2018-11-29T04:04:56.969Z,1020.12
2018-11-29T04:05:37.515Z,1020.05
2018-11-29T04:06:18.071Z,1020.04
2018-11-29T04:06:58.627Z,1020.03
2018-11-29T04:07:39.307Z,1020.07
2018-11-29T04:08:19.853Z,1020.07
2018-11-29T04:09:00.446Z,1020.03
2018-11-29T04:09:41.040Z,1020.02
2018-11-29T04:10:21.615Z,1020.03
2018-11-29T04:11:02.173Z,1020.07
2018-11-29T04:11:42.735Z,1019.97
2018-11-29T04:12:23.313Z,1019.97
2018-11-29T04:13:03.857Z,1020.04
2018-11-29T04:13:44.425Z,1020.01
2018-11-29T04:14:25.300Z,1019.99
2018-11-29T04:15:05.854Z,1020
2018-11-29T04:15:46.411Z,1019.96
2018-11-29T04:16:26.963Z,1019.96
2018-11-29T04:17:07.515Z,1019.93
2018-11-29T04:17:48.104Z,1019.84
2018-11-29T04:18:28.659Z,1019.92
2018-11-29T04:19:09.225Z,1019.91
2018-11-29T04:19:49.845Z,1019.85
2018-11-29T04:20:30.418Z,1019.93
2018-11-29T04:21:10.996Z,1019.91
2018-11-29T04:21:51.552Z,1019.91
2018-11-29T04:22:32.095Z,1019.93
2018-11-29T04:23:12.666Z,1019.9
2018-11-29T04:23:53.224Z,1020.01
2018-11-29T04:24:33.796Z,1019.98
2018-11-29T04:25:14.366Z,1020.02
2018-11-29T04:25:55.199Z,1019.98
2018-11-29T04:26:35.470Z,1019.93
2018-11-29T04:27:16.024Z,1019.92
2018-11-29T04:27:56.586Z,1019.98
2018-11-29T04:28:37.138Z,1019.92
2018-11-29T04:29:17.700Z,1019.97
2018-11-29T04:29:58.280Z,1019.88
2018-11-29T04:30:38.886Z,1019.94
2018-11-29T04:31:19.436Z,1019.96
2018-11-29T04:31:59.993Z,1020
2018-11-29T04:32:40.553Z,1019.99
2018-11-29T04:33:21.108Z,1020.02
2018-11-29T04:34:01.660Z,1019.99
2018-11-29T04:34:42.215Z,1019.98
2018-11-29T04:35:22.775Z,1020
2018-11-29T04:36:03.329Z,1020.03
2018-11-29T04:36:43.891Z,1020.02
2018-11-29T04:37:24.438Z,1020.05
2018-11-29T04:38:04.989Z,1020.04
2018-11-29T04:38:45.552Z,1020.12
2018-11-29T04:39:26.120Z,1020.11
2018-11-29T04:40:06.673Z,1020.11
2018-11-29T04:40:47.249Z,1020.11
2018-11-29T04:41:27.806Z,1020.04
2018-11-29T04:42:08.387Z,1020.02
2018-11-29T04:42:48.984Z,1020
2018-11-29T04:43:29.532Z,1020.01
2018-11-29T04:44:10.090Z,1019.96
2018-11-29T04:44:50.664Z,1020
2018-11-29T04:45:31.224Z,1019.99
2018-11-29T04:46:11.784Z,1019.87
2018-11-29T04:46:52.339Z,1019.89
2018-11-29T04:47:32.897Z,1019.85
2018-11-29T04:48:13.496Z,1019.87
2018-11-29T04:48:54.035Z,1019.82
2018-11-29T04:49:34.601Z,1019.82
2018-11-29T04:50:15.154Z,1019.79
2018-11-29T04:50:55.740Z,1019.76
2018-11-29T04:51:36.299Z,1019.77
2018-11-29T04:52:16.858Z,1019.79
2018-11-29T04:52:57.419Z,1019.68
2018-11-29T04:53:37.983Z,1019.64
2018-11-29T04:54:18.544Z,1019.71
2018-11-29T04:54:59.111Z,1019.69
2018-11-29T04:55:39.662Z,1019.67
2018-11-29T04:56:20.245Z,1019.75
2018-11-29T04:57:00.805Z,1019.7
2018-11-29T04:57:41.366Z,1019.75
2018-11-29T04:58:21.904Z,1019.8
2018-11-29T04:59:02.465Z,1019.71
2018-11-29T04:59:43.068Z,1019.74
2018-11-29T05:00:23.606Z,1019.75
2018-11-29T05:01:04.166Z,1019.73
2018-11-29T05:01:44.703Z,1019.72
2018-11-29T05:02:25.259Z,1019.74
2018-11-29T05:03:05.821Z,1019.66
2018-11-29T05:03:46.401Z,1019.65
2018-11-29T05:04:26.960Z,1019.66
2018-11-29T05:05:07.539Z,1019.64
2018-11-29T05:05:48.101Z,1019.65
2018-11-29T05:06:28.665Z,1019.6
2018-11-29T05:07:09.236Z,1019.65
2018-11-29T05:07:49.955Z,1019.62
2018-11-29T05:08:30.549Z,1019.65
2018-11-29T05:09:11.168Z,1019.63
2018-11-29T05:09:51.766Z,1019.65
2018-11-29T05:10:32.309Z,1019.64
2018-11-29T05:11:12.884Z,1019.66
2018-11-29T05:11:53.429Z,1019.7
2018-11-29T05:12:33.974Z,1019.66
2018-11-29T05:13:14.529Z,1019.74
2018-11-29T05:13:55.086Z,1019.68
2018-11-29T05:14:35.648Z,1019.58
2018-11-29T05:15:16.216Z,1019.6
2018-11-29T05:15:56.771Z,1019.55
2018-11-29T05:16:37.325Z,1019.58
2018-11-29T05:17:17.895Z,1019.54
2018-11-29T05:17:58.482Z,1019.52
2018-11-29T05:18:39.041Z,1019.56
2018-11-29T05:19:19.599Z,1019.48
2018-11-29T05:20:00.173Z,1019.5
2018-11-29T05:20:40.722Z,1019.54
2018-11-29T05:21:21.278Z,1019.57
2018-11-29T05:22:01.835Z,1019.53
2018-11-29T05:22:42.551Z,1019.51
2018-11-29T05:23:23.105Z,1019.6
2018-11-29T05:24:03.666Z,1019.53
2018-11-29T05:24:44.218Z,1019.5
2018-11-29T05:25:24.797Z,1019.47
2018-11-29T05:26:05.354Z,1019.49
2018-11-29T05:26:46.114Z,1019.47
2018-11-29T05:27:26.668Z,1019.46
2018-11-29T05:28:07.391Z,1019.48
2018-11-29T05:28:47.951Z,1019.46
2018-11-29T05:29:28.510Z,1019.42
2018-11-29T05:30:09.075Z,1019.47
2018-11-29T05:30:49.618Z,1019.49
2018-11-29T05:31:30.268Z,1019.57
2018-11-29T05:32:10.826Z,1019.54
2018-11-29T05:32:51.386Z,1019.48
2018-11-29T05:33:31.943Z,1019.52
2018-11-29T05:34:12.505Z,1019.49
2018-11-29T05:34:53.111Z,1019.55
2018-11-29T05:35:33.618Z,1019.56
2018-11-29T05:36:14.171Z,1019.49
2018-11-29T05:36:54.730Z,1019.54
2018-11-29T05:37:35.704Z,1019.53
2018-11-29T05:38:15.850Z,1019.54
2018-11-29T05:38:56.407Z,1019.57
2018-11-29T05:39:36.964Z,1019.53
2018-11-29T05:40:17.520Z,1019.53
2018-11-29T05:40:58.070Z,1019.54
2018-11-29T05:41:38.645Z,1019.5
2018-11-29T05:42:19.226Z,1019.52
2018-11-29T05:42:59.792Z,1019.52
2018-11-29T05:43:40.365Z,1019.61
2018-11-29T05:44:20.934Z,1019.56
2018-11-29T05:45:01.485Z,1019.51
2018-11-29T05:45:42.034Z,1019.55
2018-11-29T05:46:22.581Z,1019.56
2018-11-29T05:47:03.165Z,1019.49
2018-11-29T05:47:43.732Z,1019.58
2018-11-29T05:48:24.289Z,1019.56
2018-11-29T05:49:04.847Z,1019.62
2018-11-29T05:49:45.415Z,1019.52
2018-11-29T05:50:25.983Z,1019.54
2018-11-29T05:51:06.547Z,1019.58
2018-11-29T05:51:47.146Z,1019.53
2018-11-29T05:52:27.712Z,1019.49
2018-11-29T05:53:08.277Z,1019.56
2018-11-29T05:53:48.838Z,1019.67
2018-11-29T05:54:29.410Z,1019.6
2018-11-29T05:55:09.967Z,1019.62
2018-11-29T05:55:50.520Z,1019.65
2018-11-29T05:56:31.099Z,1019.6
2018-11-29T05:57:11.646Z,1019.61
2018-11-29T05:57:52.227Z,1019.64
2018-11-29T05:58:32.787Z,1019.64
2018-11-29T05:59:13.477Z,1019.7
2018-11-29T05:59:53.925Z,1019.62
2018-11-29T06:00:34.467Z,1019.55
2018-11-29T06:01:15.020Z,1019.61
2018-11-29T06:01:55.594Z,1019.57
2018-11-29T06:02:36.165Z,1019.64
2018-11-29T06:03:16.731Z,1019.59
2018-11-29T06:03:57.296Z,1019.6
2018-11-29T06:04:37.854Z,1019.58
2018-11-29T06:05:18.409Z,1019.58
2018-11-29T06:05:58.958Z,1019.62
2018-11-29T06:06:39.516Z,1019.57
2018-11-29T06:07:20.094Z,1019.52
2018-11-29T06:08:00.641Z,1019.52
2018-11-29T06:08:41.207Z,1019.53
2018-11-29T06:09:21.754Z,1019.44
2018-11-29T06:10:02.304Z,1019.55
2018-11-29T06:10:42.862Z,1019.49
2018-11-29T06:11:23.423Z,1019.47
2018-11-29T06:12:03.970Z,1019.47
2018-11-29T06:12:44.548Z,1019.45
2018-11-29T06:13:25.131Z,1019.47
2018-11-29T06:14:05.699Z,1019.38
2018-11-29T06:14:46.626Z,1019.37
2018-11-29T06:15:27.309Z,1019.4
2018-11-29T06:16:07.873Z,1019.38
2018-11-29T06:16:48.437Z,1019.37
2018-11-29T06:17:28.993Z,1019.41
2018-11-29T06:18:09.553Z,1019.35
2018-11-29T06:18:50.127Z,1019.41
2018-11-29T06:19:30.692Z,1019.43
2018-11-29T06:20:11.264Z,1019.35
2018-11-29T06:20:51.821Z,1019.37
2018-11-29T06:21:32.396Z,1019.38
2018-11-29T06:22:12.949Z,1019.41
2018-11-29T06:22:53.523Z,1019.36
2018-11-29T06:23:34.076Z,1019.33
2018-11-29T06:24:14.636Z,1019.32
2018-11-29T06:24:55.213Z,1019.34
2018-11-29T06:25:35.780Z,1019.37
2018-11-29T06:26:16.309Z,1019.36
2018-11-29T06:26:56.874Z,1019.4
2018-11-29T06:27:37.430Z,1019.36
2018-11-29T06:28:18.008Z,1019.33
2018-11-29T06:28:58.581Z,1019.39
2018-11-29T06:29:39.139Z,1019.42
2018-11-29T06:30:19.697Z,1019.43
2018-11-29T06:31:00.248Z,1019.43
2018-11-29T06:31:40.793Z,1019.38
2018-11-29T06:32:21.356Z,1019.45
2018-11-29T06:33:01.896Z,1019.51
2018-11-29T06:33:42.465Z,1019.52
2018-11-29T06:34:23.065Z,1019.5
2018-11-29T06:35:03.612Z,1019.52
2018-11-29T06:35:44.169Z,1019.56
2018-11-29T06:36:24.736Z,1019.49
2018-11-29T06:37:05.291Z,1019.48
2018-11-29T06:37:46.966Z,1019.5
2018-11-29T06:38:27.524Z,1019.51
2018-11-29T06:39:08.095Z,1019.46
2018-11-29T06:39:48.684Z,1019.49
2018-11-29T06:40:29.235Z,1019.35
2018-11-29T06:41:09.801Z,1019.37
2018-11-29T06:41:50.352Z,1019.38
2018-11-29T06:42:30.891Z,1019.37
2018-11-29T06:43:11.471Z,1019.32
2018-11-29T06:43:52.066Z,1019.31
2018-11-29T06:44:32.617Z,1019.35
2018-11-29T06:45:13.227Z,1019.28
2018-11-29T06:45:53.888Z,1019.25
2018-11-29T06:46:34.439Z,1019.28
2018-11-29T06:47:15.006Z,1019.26
2018-11-29T06:47:55.569Z,1019.28
2018-11-29T06:48:36.123Z,1019.26
2018-11-29T06:49:16.780Z,1019.36
2018-11-29T06:49:57.389Z,1019.32
2018-11-29T06:50:37.955Z,1019.28
2018-11-29T06:51:18.519Z,1019.3
2018-11-29T06:51:59.049Z,1019.32
2018-11-29T06:52:39.621Z,1019.31
2018-11-29T06:53:20.180Z,1019.37
2018-11-29T06:54:00.742Z,1019.32
2018-11-29T06:54:41.307Z,1019.28
2018-11-29T06:55:21.865Z,1019.26
2018-11-29T06:56:02.440Z,1019.31
2018-11-29T06:56:43.038Z,1019.33
2018-11-29T06:57:23.623Z,1019.23
2018-11-29T06:58:04.163Z,1019.26
2018-11-29T06:58:44.714Z,1019.24
2018-11-29T06:59:25.277Z,1019.24
2018-11-29T07:00:05.836Z,1019.23
2018-11-29T07:00:46.422Z,1019.3
2018-11-29T07:01:26.972Z,1019.26
2018-11-29T07:02:07.562Z,1019.26
2018-11-29T07:02:48.141Z,1019.19
2018-11-29T07:03:28.947Z,1019.28
2018-11-29T07:04:09.293Z,1019.2
2018-11-29T07:04:49.847Z,1019.24
2018-11-29T07:05:30.435Z,1019.26
2018-11-29T07:06:11.146Z,1019.25
2018-11-29T07:06:51.717Z,1019.19
2018-11-29T07:10:11.696Z,1019.32
2018-11-29T07:10:52.280Z,1019.25
2018-11-29T07:11:32.853Z,1019.31
2018-11-29T07:12:13.443Z,1019.26
2018-11-29T07:12:54.025Z,1019.28
2018-11-29T07:13:34.535Z,1019.26
2018-11-29T07:14:15.091Z,1019.25
2018-11-29T07:14:55.671Z,1019.3
2018-11-29T07:15:36.228Z,1019.29
2018-11-29T07:16:16.782Z,1019.29
2018-11-29T07:16:57.355Z,1019.33
2018-11-29T07:17:37.899Z,1019.25
2018-11-29T07:18:18.462Z,1019.25
2018-11-29T07:18:59.026Z,1019.28
2018-11-29T07:19:39.603Z,1019.26
2018-11-29T07:20:20.199Z,1019.31
2018-11-29T07:21:00.752Z,1019.27
2018-11-29T07:21:41.352Z,1019.23
2018-11-29T07:22:21.956Z,1019.25
2018-11-29T07:23:02.490Z,1019.28
2018-11-29T07:23:43.040Z,1019.26
2018-11-29T07:24:23.605Z,1019.23
2018-11-29T07:25:04.153Z,1019.22
2018-11-29T07:25:44.788Z,1019.23
2018-11-29T07:26:25.302Z,1019.15
2018-11-29T07:27:05.843Z,1019.17
2018-11-29T07:27:46.413Z,1019.15
2018-11-29T07:28:26.983Z,1019.18
2018-11-29T07:29:07.545Z,1019.1
2018-11-29T07:29:48.153Z,1019.12
2018-11-29T07:30:28.715Z,1019.18
2018-11-29T07:31:09.306Z,1019.22
2018-11-29T07:31:49.850Z,1019.14
2018-11-29T07:32:30.409Z,1019.12
2018-11-29T07:33:10.958Z,1019.16
2018-11-29T07:33:51.554Z,1019.18
2018-11-29T07:34:32.241Z,1019.2
2018-11-29T07:35:12.818Z,1019.14
2018-11-29T07:35:53.363Z,1019.17
2018-11-29T07:36:33.928Z,1019.16
2018-11-29T07:37:17.321Z,1019.18
2018-11-29T07:37:55.046Z,1019.14
2018-11-29T07:38:35.606Z,1019.18
2018-11-29T07:39:16.175Z,1019.17
2018-11-29T07:39:56.736Z,1019.11
2018-11-29T07:40:37.289Z,1019.16
2018-11-29T07:41:17.875Z,1019.17
2018-11-29T07:41:58.435Z,1019.2
2018-11-29T07:42:38.995Z,1019.2
2018-11-29T07:43:19.556Z,1019.22
2018-11-29T07:44:00.133Z,1019.23
2018-11-29T07:44:40.692Z,1019.25
2018-11-29T07:45:21.237Z,1019.29
2018-11-29T07:46:01.785Z,1019.34
2018-11-29T07:46:42.352Z,1019.32
2018-11-29T07:47:22.919Z,1019.31
2018-11-29T07:48:03.482Z,1019.34
2018-11-29T07:48:44.033Z,1019.32
2018-11-29T07:49:24.602Z,1019.31
2018-11-29T07:50:05.174Z,1019.34
2018-11-29T07:50:45.747Z,1019.27
2018-11-29T07:51:26.336Z,1019.3
2018-11-29T07:52:06.934Z,1019.22
2018-11-29T07:52:47.499Z,1019.24
2018-11-29T07:53:28.073Z,1019.29
2018-11-29T07:54:08.673Z,1019.19
2018-11-29T07:54:49.249Z,1019.22
2018-11-29T07:55:29.805Z,1019.18
2018-11-29T07:56:10.361Z,1019.17
2018-11-29T07:56:50.918Z,1019.15
2018-11-29T07:57:31.471Z,1019.21
2018-11-29T07:58:12.019Z,1019.16
2018-11-29T07:58:53.127Z,1019.2
2018-11-29T07:59:33.568Z,1019.09
2018-11-29T08:00:14.490Z,1019.11
2018-11-29T08:00:55.046Z,1019.11
2018-11-29T08:01:35.788Z,1019.07
2018-11-29T08:02:16.371Z,1019.01
2018-11-29T08:02:56.935Z,1019.01
2018-11-29T08:03:37.528Z,1018.98
2018-11-29T08:04:18.143Z,1018.92
2018-11-29T08:04:58.701Z,1018.93
2018-11-29T08:05:39.260Z,1018.95
2018-11-29T08:06:19.822Z,1018.93
2018-11-29T08:07:00.493Z,1018.85
2018-11-29T08:07:41.523Z,1018.96
2018-11-29T08:08:22.312Z,1018.88
2018-11-29T08:09:02.884Z,1018.99
2018-11-29T08:09:43.565Z,1018.92
2018-11-29T08:10:24.130Z,1018.94
2018-11-29T08:11:04.693Z,1018.96
2018-11-29T08:11:45.276Z,1018.93
2018-11-29T08:12:25.836Z,1018.93
2018-11-29T08:13:06.539Z,1018.93
2018-11-29T08:13:47.100Z,1018.96
2018-11-29T08:14:27.665Z,1018.94
2018-11-29T08:15:08.216Z,1018.89